Weather observations for the past three days for
Kirksville, Kirksville Regional Airport
Metric (Imperial)
Date Time (cdt) Wind (kph) Vis. (km) Weather Sky Cond. Temperature (ºC) Relative Humidity Wind Chill (°C) Heat Index (°C) Pressure Precipitation (cm)
Air Dwpt 6 hour altimeter (cm) sea level (mb) 1 hr 3 hr 6 hr
Max. Min.
03 09:55 SW 17 G 30 16.09 Fair CLR 29.4 21.1 61% 32 76.15 1014.3
03 08:55 SW 19 G 30 16.09 Fair CLR 27.8 20.6 65% 30 76.15 1014.3
03 07:55 S 13 16.09 Fair CLR 25 20.6 77% 26 76.12 1014.2
03 06:55 S 11 16.09 Fair CLR 23.9 20 26.7 23.3 79% 24 76.07 1013.6
03 05:55 S 9 16.09 Fair CLR 23.9 20.6 82% 24 76.05 1013.1
03 04:55 S 11 16.09 Fair CLR 24.4 20.6 79% 25 76.05 1012.9
03 03:55 S 13 16.09 Fair CLR 25 21.1 79% 26 76.05 1012.9
03 02:55 S 13 16.09 Fair CLR 25.6 21.1 76% 27 76.05 1012.9
03 01:55 S 11 16.09 Fair CLR 25.6 21.1 76% 27 76.05 1013.1
03 00:55 S 11 16.09 Fair CLR 26.7 20.6 32.2 25.6 69% 28 76.07 1013.2
02 23:55 S 13 16.09 Fair CLR 26.1 20.6 72% 28 76.05 1013.2
02 22:55 S 13 16.09 Fair CLR 26.1 21.1 74% 28 76.07 1013.3
02 21:55 S 13 16.09 Fair CLR 25.6 21.1 76% 27 76.07 1013.4
02 20:55 S 9 16.09 Fair CLR 27.2 21.1 69% 29 76.05 1013.0
02 19:55 S 9 16.09 Fair CLR 28.9 21.1 63% 31 76.02 1012.8
02 18:55 S 7 16.09 Fair CLR 32.8 21.1 36.7 32.8 50% 36 76.02 1012.6
02 17:55 SW 17 16.09 Fair CLR 35 18.9 39% 37 76.02 1012.6
02 16:55 SW 19 G 31 16.09 Fair CLR 36.1 18.3 35% 38 76.02 1012.6
02 15:55 SW 17 16.09 Fair CLR 36.7 19.4 36% 39 76.05 1013.0
02 14:55 SW 13 G 31 16.09 Fair CLR 36.1 20 39% 39 76.1 1013.7
02 13:55 SW 19 G 28 16.09 Fair CLR 35.6 20.6 41% 39 76.12 1014.2
02 12:55 S 13 16.09 Fair CLR 34.4 21.1 34.4 23.3 46% 38 76.2 1014.9
02 11:55 SW 17 G 33 16.09 Fair CLR 32.8 21.1 50% 36 76.23 1015.6
02 10:55 SW 15 16.09 Fair CLR 31.1 21.1 55% 34 76.25 1015.7
02 09:55 SW 19 16.09 Fair CLR 28.9 20.6 61% 31 76.2 1015.4
02 08:55 SW 11 16.09 Fair CLR 27.8 20 63% 29 76.2 1015.4
02 07:55 SW 11 16.09 Fair CLR 25.6 20 71% 27 76.2 1015.3
02 06:55 S 11 16.09 Fair CLR 23.3 20 26.1 22.8 82% 76.2 1015.1
02 05:55 S 7 16.09 Fair CLR 23.3 20 82% 76.17 1014.9
02 04:55 S 7 16.09 Partly Cloudy SCT100 23.3 20 82% 76.17 1014.7
02 03:55 S 9 16.09 Fair CLR 23.9 20 79% 24 76.15 1014.2
02 02:55 S 11 16.09 Fair CLR 24.4 20 77% 25 76.1 1013.8
02 01:55 S 9 16.09 Fair CLR 25.6 20 71% 27 76.12 1014.1
02 00:55 S 13 16.09 Fair CLR 25.6 20 31.7 23.9 71% 27 76.15 1014.5
01 23:55 S 9 16.09 Fair CLR 25 19.4 71% 26 76.17 1014.7
01 22:55 S 11 16.09 Fair CLR 23.9 18.9 74% 25 76.15 1014.5
01 21:55 S 9 16.09 Fair CLR 25 18.9 69% 26 76.12 1014.2
01 20:55 S 9 16.09 Fair CLR 25.6 19.4 69% 27 76.1 1013.9
01 19:55 S 11 16.09 Fair CLR 27.8 18.9 58% 29 76.07 1013.7
01 18:55 S 9 16.09 Fair CLR 32.2 18.9 36.7 32.2 45% 34 76.1 1013.8
01 17:55 S 11 16.09 Fair CLR 35 17.2 35% 36 76.1 1013.8
01 16:55 SW 15 16.09 Fair CLR 36.1 16.7 32% 37 76.1 1013.7
01 15:55 SW 17 16.09 Fair CLR 36.7 16.7 31% 37 76.12 1014.1
01 14:55 W 20 G 37 16.09 Fair CLR 36.1 16.1 30% 36 76.17 1014.6
01 13:55 SW 15 16.09 Fair CLR 36.1 17.2 33% 37 76.23 1015.3
01 12:55 SW 17 16.09 Fair CLR 35.6 18.9 35.6 22.2 37% 38 76.25 1015.7
01 11:55 SW 15 16.09 Fair CLR 33.9 20 44% 36 76.28 1016.2
01 10:55 SW 13 16.09 Fair CLR 31.7 20 50% 34 76.3 1016.4
01 09:55 SW 15 16.09 Fair CLR 29.4 18.9 53% 31 76.3 1016.7
01 08:55 SW 13 16.09 Fair CLR 27.2 18.9 61% 28 76.33 1016.8
01 07:55 SW 11 16.09 Fair CLR 23.9 18.3 71% 25 76.3 1016.7
01 06:55 SW 9 16.09 Fair CLR 22.2 17.8 23.9 21.7 76% 76.25 1016.1
01 05:55 SW 7 16.09 Fair CLR 22.2 18.3 79% 76.2 1015.3
01 04:55 S 7 16.09 Fair CLR 23.3 18.9 76% 76.17 1014.8
01 03:55 SW 6 16.09 Fair CLR 22.8 20 84% 76.17 1014.7
01 02:55 S 6 16.09 Fair CLR 23.3 20 82% 76.17 1014.7
01 01:55 SW 6 16.09 Fair CLR 23.3 20 82% 76.17 1014.8
01 00:55 SW 7 16.09 Fair CLR 23.9 20.6 32.2 22.8 82% 24 76.17 1014.7
31 23:55 Calm 16.09 Fair CLR 22.8 21.1 90% 76.15 1014.6
31 22:55 Calm 16.09 Fair CLR 23.9 21.1 84% 24 76.15 1014.5
31 21:55 Calm 16.09 Fair CLR 25 21.7 82% 26 76.12 1014.4
31 20:55 S 7 16.09 Fair CLR 26.1 21.7 77% 28 76.1 1014.0
31 19:55 S 7 16.09 Fair CLR 28.9 21.7 65% 32 76.07 1013.5
31 18:55 SW 6 16.09 Fair CLR 32.2 21.1 34.4 32.2 52% 35 76.05 1013.2
31 17:55 SW 13 16.09 Fair CLR 33.3 21.1 49% 37 76.05 1013.2
31 16:55 SW 20 G 31 16.09 Fair CLR 34.4 20.6 44% 37 76.07 1013.3
31 15:55 W 15 G 31 16.09 Fair CLR 33.9 20 44% 36 76.07 1013.4
31 14:55 SW 20 G 33 16.09 Fair CLR 33.9 19.4 42% 36 76.07 1013.5
31 13:55 SW 22 G 37 16.09 Fair CLR 33.9 20 44% 36 76.07 1013.5
31 12:55 SW 22 G 37 16.09 Fair CLR 32.8 19.4 33.3 24.4 45% 35 76.1 1013.9
31 11:55 SW 20 16.09 NULL NULL 32.2 19.4 47% 34 76.12 1014.2
31 10:55 SW 20 G 43 16.09 Fair CLR 30.6 18.3 48% 32 76.15 1014.4
Date Time (cdt) Wind (kph) Vis. (km) Weather Sky Cond. Air Dwpt Max. Min. Relative Humidity Wind Chill (°C) Heat Index (°C) altimeter (cm) sea level (mb) 1 hr 3 hr 6 hr
6 hour
Temperature (ºC) Pressure Precipitation (cm)